Time;durP1;ratioP1;P1;durP2;ratioP2;P2;SDS_P1;SDS_P2;PMS_P1;PMS_P2;Temp;Humidity;BMP_temperature;BMP_pressure;BME280_temperature;BME280_humidity;BME280_pressure;Samples;Min_cycle;Max_cycle;Signal;HPM_P1;HPM_P2
2023/07/04 00:00:38;;;;;;;;;;;17.70;59.30;;;;;;5071586;28;20388;-86
2023/07/04 00:03:04;;;;;;;;;;;17.70;59.30;;;;;;5065993;28;19916;-85
2023/07/04 00:05:29;;;;;;;;;;;17.60;59.90;;;;;;5071993;28;19985;-85
2023/07/04 00:08:04;;;;;;;;;;;17.50;60.00;;;;;;5091643;28;19916;-85
2023/07/04 00:10:29;;;;;;;;;;;17.50;60.40;;;;;;5086235;28;19969;-85
2023/07/04 00:12:55;;;;;;;;;;;17.50;60.60;;;;;;5089624;28;19909;-86
2023/07/04 00:15:20;;;;;;;;;;;17.60;60.60;;;;;;5089229;28;19915;-85
2023/07/04 00:17:46;;;;;;;;;;;17.50;60.70;;;;;;5089239;28;19912;-85
2023/07/04 00:20:13;;;;;;;;;;;17.50;61.00;;;;;;5089552;28;19916;-86
2023/07/04 00:22:40;;;;;;;;;;;17.50;61.10;;;;;;5069570;28;19937;-86
2023/07/04 00:25:06;;;;;;;;;;;17.30;61.60;;;;;;5073400;28;19912;-86
2023/07/04 00:27:33;;;;;;;;;;;17.30;61.70;;;;;;5091688;28;19920;-86
2023/07/04 00:29:59;;;;;;;;;;;17.30;61.90;;;;;;5075645;28;19912;-86
2023/07/04 00:32:25;;;;;;;;;;;17.30;62.00;;;;;;5091540;28;19916;-85
2023/07/04 00:34:50;;;;;;;;;;;17.30;62.00;;;;;;5074843;28;19920;-86
2023/07/04 00:37:21;;;;;;;;;;;17.40;62.00;;;;;;5070080;28;19995;-85
2023/07/04 00:39:47;;;;;;;;;;;17.40;62.00;;;;;;5076378;28;19934;-86
2023/07/04 00:42:12;;;;;;;;;;;17.30;62.50;;;;;;5074979;28;19979;-85
2023/07/04 00:44:44;;;;;;;;;;;17.30;62.70;;;;;;5085667;28;20404;-86
2023/07/04 00:47:15;;;;;;;;;;;17.30;62.60;;;;;;5077192;28;19931;-85
2023/07/04 00:49:42;;;;;;;;;;;17.30;62.80;;;;;;5095951;28;19919;-85
2023/07/04 00:52:09;;;;;;;;;;;17.30;62.90;;;;;;5092861;28;19916;-85
2023/07/04 00:55:01;;;;;;;;;;;17.30;63.00;;;;;;5093205;28;20672;-86
2023/07/04 00:57:31;;;;;;;;;;;17.30;62.90;;;;;;5065725;28;19977;-85
2023/07/04 00:59:58;;;;;;;;;;;17.40;62.80;;;;;;5076426;28;19975;-86
2023/07/04 01:02:26;;;;;;;;;;;17.30;63.10;;;;;;5075440;28;20090;-86
2023/07/04 01:04:52;;;;;;;;;;;17.30;63.10;;;;;;5076021;28;19908;-86
2023/07/04 01:07:30;;;;;;;;;;;17.30;63.50;;;;;;5075347;28;19919;-85
2023/07/04 01:10:19;;;;;;;;;;;17.20;63.80;;;;;;5081542;28;19924;-85
2023/07/04 01:12:46;;;;;;;;;;;17.10;64.00;;;;;;5076443;28;19912;-86
2023/07/04 01:15:11;;;;;;;;;;;17.10;64.10;;;;;;5072446;28;20285;-85
2023/07/04 01:17:38;;;;;;;;;;;16.90;64.60;;;;;;5070004;28;19919;-86
2023/07/04 01:20:08;;;;;;;;;;;16.90;64.80;;;;;;5064931;28;19912;-85
2023/07/04 01:22:38;;;;;;;;;;;16.90;64.90;;;;;;5078325;28;19912;-85
2023/07/04 01:25:22;;;;;;;;;;;16.80;65.20;;;;;;5083157;28;20006;-85
2023/07/04 01:27:50;;;;;;;;;;;16.80;65.40;;;;;;5088767;28;19912;-85
2023/07/04 01:30:16;;;;;;;;;;;16.80;65.60;;;;;;5093203;28;19948;-85
2023/07/04 01:32:42;;;;;;;;;;;16.80;65.50;;;;;;5071883;28;19924;-85
2023/07/04 01:35:11;;;;;;;;;;;16.60;65.80;;;;;;5072149;28;19923;-85
2023/07/04 01:37:36;;;;;;;;;;;16.70;65.70;;;;;;5091424;28;20366;-86
2023/07/04 01:40:04;;;;;;;;;;;16.60;66.00;;;;;;5074656;28;19971;-86
2023/07/04 01:42:33;;;;;;;;;;;16.60;66.20;;;;;;5071557;28;19985;-85
2023/07/04 01:45:01;;;;;;;;;;;16.60;66.40;;;;;;5092640;28;19919;-87
2023/07/04 01:47:31;;;;;;;;;;;16.60;66.20;;;;;;5074387;28;19912;-85
2023/07/04 01:49:56;;;;;;;;;;;16.50;66.50;;;;;;5092357;28;20320;-86
2023/07/04 01:52:22;;;;;;;;;;;16.50;66.80;;;;;;5090244;28;19916;-85
2023/07/04 01:54:47;;;;;;;;;;;16.40;67.20;;;;;;5072218;28;19962;-86
2023/07/04 01:57:13;;;;;;;;;;;16.40;67.10;;;;;;5072209;28;20296;-86
2023/07/04 01:59:38;;;;;;;;;;;16.40;67.30;;;;;;5074884;28;19965;-86
2023/07/04 02:02:04;;;;;;;;;;;16.40;67.50;;;;;;5074100;28;19912;-86
2023/07/04 02:04:29;;;;;;;;;;;16.50;67.30;;;;;;5091843;28;20358;-86
2023/07/04 02:06:55;;;;;;;;;;;16.50;67.30;;;;;;5073767;28;19916;-86
2023/07/04 02:09:20;;;;;;;;;;;16.50;67.30;;;;;;5066804;28;20391;-86
2023/07/04 02:11:46;;;;;;;;;;;16.50;67.60;;;;;;5072295;28;19916;-85
2023/07/04 02:14:12;;;;;;;;;;;16.40;67.80;;;;;;5074509;28;19912;-86
2023/07/04 02:16:38;;;;;;;;;;;16.40;68.10;;;;;;5073147;28;19923;-86
2023/07/04 02:19:03;;;;;;;;;;;16.30;68.20;;;;;;5072793;28;19931;-86
2023/07/04 02:21:29;;;;;;;;;;;16.30;68.30;;;;;;5088002;28;20569;-85
2023/07/04 02:23:54;;;;;;;;;;;16.20;68.60;;;;;;5076933;28;19912;-86
2023/07/04 02:26:20;;;;;;;;;;;16.20;68.60;;;;;;5088598;28;19920;-86
2023/07/04 02:28:45;;;;;;;;;;;16.20;68.90;;;;;;5089583;28;19917;-86
2023/07/04 02:31:13;;;;;;;;;;;16.10;69.10;;;;;;5090688;28;20007;-86
2023/07/04 02:33:38;;;;;;;;;;;16.20;69.10;;;;;;5074691;28;20345;-86
2023/07/04 02:36:04;;;;;;;;;;;16.10;69.10;;;;;;5069201;28;19912;-85
2023/07/04 02:38:30;;;;;;;;;;;16.10;69.40;;;;;;5074725;28;19969;-85
2023/07/04 02:40:55;;;;;;;;;;;16.00;69.80;;;;;;5071750;28;19959;-86
2023/07/04 02:43:20;;;;;;;;;;;16.10;69.60;;;;;;5076520;28;19938;-86
2023/07/04 02:45:46;;;;;;;;;;;16.00;69.90;;;;;;5077838;28;19916;-86
2023/07/04 02:48:13;;;;;;;;;;;16.00;70.00;;;;;;5077656;28;19962;-85
2023/07/04 02:50:38;;;;;;;;;;;16.00;70.20;;;;;;5072147;28;19971;-85
2023/07/04 02:53:04;;;;;;;;;;;16.00;70.20;;;;;;5090278;28;19958;-85
2023/07/04 02:55:29;;;;;;;;;;;16.00;70.40;;;;;;5072269;28;20377;-86
2023/07/04 02:57:55;;;;;;;;;;;16.00;70.70;;;;;;5072212;28;19912;-86
2023/07/04 03:00:20;;;;;;;;;;;15.90;71.10;;;;;;5070775;28;20368;-85
2023/07/04 03:02:46;;;;;;;;;;;16.00;70.90;;;;;;5091034;28;19912;-86
2023/07/04 03:05:11;;;;;;;;;;;15.90;71.10;;;;;;5073065;28;19908;-85
2023/07/04 03:07:37;;;;;;;;;;;15.80;71.50;;;;;;5089417;28;19937;-86
2023/07/04 03:10:02;;;;;;;;;;;15.80;71.70;;;;;;5073014;28;20355;-85
2023/07/04 03:12:28;;;;;;;;;;;15.90;71.60;;;;;;5072774;28;20235;-85
2023/07/04 03:14:53;;;;;;;;;;;15.90;71.60;;;;;;5091851;28;20354;-86
2023/07/04 03:17:19;;;;;;;;;;;15.90;71.70;;;;;;5091865;28;19908;-86
2023/07/04 03:19:44;;;;;;;;;;;15.90;71.50;;;;;;5066344;28;19958;-86
2023/07/04 03:22:10;;;;;;;;;;;15.90;71.60;;;;;;5070028;28;19916;-85
2023/07/04 03:24:36;;;;;;;;;;;15.90;71.40;;;;;;5090978;28;19912;-86
2023/07/04 03:27:01;;;;;;;;;;;15.90;71.70;;;;;;5072689;28;19919;-85
2023/07/04 03:29:27;;;;;;;;;;;15.90;71.60;;;;;;5071531;28;20110;-86
2023/07/04 03:31:52;;;;;;;;;;;16.00;71.90;;;;;;5072148;28;19951;-86
2023/07/04 03:34:18;;;;;;;;;;;15.90;71.70;;;;;;5082224;28;19959;-85
2023/07/04 03:36:43;;;;;;;;;;;16.00;71.70;;;;;;5077599;28;20029;-85
2023/07/04 03:39:09;;;;;;;;;;;16.10;71.80;;;;;;5093572;28;20049;-85
2023/07/04 03:41:34;;;;;;;;;;;16.00;71.90;;;;;;5079023;28;19912;-85
2023/07/04 03:44:00;;;;;;;;;;;16.00;72.10;;;;;;5080584;28;19962;-85
2023/07/04 03:46:26;;;;;;;;;;;16.00;72.00;;;;;;5078928;28;19922;-86
2023/07/04 03:48:51;;;;;;;;;;;16.00;72.10;;;;;;5075066;28;20293;-85
2023/07/04 03:51:17;;;;;;;;;;;15.90;72.30;;;;;;5076452;28;19934;-85
2023/07/04 03:53:43;;;;;;;;;;;15.80;72.60;;;;;;5093487;28;19916;-85
2023/07/04 03:56:08;;;;;;;;;;;15.80;72.70;;;;;;5092688;28;20329;-85
2023/07/04 03:58:34;;;;;;;;;;;15.80;72.80;;;;;;5096310;28;20251;-85
2023/07/04 04:01:00;;;;;;;;;;;15.80;72.90;;;;;;5097306;28;19992;-84
2023/07/04 04:03:26;;;;;;;;;;;15.80;72.90;;;;;;5078898;28;20513;-85
2023/07/04 04:05:51;;;;;;;;;;;15.80;72.90;;;;;;5098145;28;19912;-85
2023/07/04 04:08:17;;;;;;;;;;;15.90;72.80;;;;;;5076912;28;19908;-85
2023/07/04 04:10:43;;;;;;;;;;;15.80;73.00;;;;;;5091198;28;19924;-85
2023/07/04 04:13:09;;;;;;;;;;;15.80;73.30;;;;;;5086521;28;19908;-85
2023/07/04 04:15:34;;;;;;;;;;;15.80;73.50;;;;;;5081502;28;19965;-85
2023/07/04 04:18:00;;;;;;;;;;;15.70;73.70;;;;;;5084269;28;19916;-85
2023/07/04 04:20:25;;;;;;;;;;;15.70;74.10;;;;;;5099641;28;19995;-85
2023/07/04 04:22:51;;;;;;;;;;;15.70;74.20;;;;;;5073004;28;19912;-85
2023/07/04 04:25:17;;;;;;;;;;;15.70;74.10;;;;;;5090960;28;19908;-84
2023/07/04 04:27:43;;;;;;;;;;;15.80;74.10;;;;;;5074734;28;20398;-85
2023/07/04 04:30:10;;;;;;;;;;;15.80;74.20;;;;;;5090560;28;19912;-85
2023/07/04 04:32:39;;;;;;;;;;;15.70;74.40;;;;;;5075447;28;19908;-86
2023/07/04 04:35:05;;;;;;;;;;;15.70;74.50;;;;;;5075085;28;19916;-84
2023/07/04 04:37:31;;;;;;;;;;;15.70;74.70;;;;;;5074374;28;20448;-85
2023/07/04 04:39:57;;;;;;;;;;;15.80;74.70;;;;;;5072406;28;19912;-84
2023/07/04 04:42:23;;;;;;;;;;;15.90;74.50;;;;;;5074484;28;19926;-85
2023/07/04 04:44:53;;;;;;;;;;;15.80;74.70;;;;;;5074601;28;20301;-85
2023/07/04 04:47:23;;;;;;;;;;;15.90;74.50;;;;;;5086203;28;19904;-85
2023/07/04 04:49:48;;;;;;;;;;;15.90;74.50;;;;;;5082764;28;19928;-85
2023/07/04 04:52:14;;;;;;;;;;;15.90;74.70;;;;;;5078096;28;19934;-85
2023/07/04 04:54:39;;;;;;;;;;;15.90;74.60;;;;;;5078304;28;19924;-85
2023/07/04 04:57:05;;;;;;;;;;;15.80;74.80;;;;;;5094964;28;19912;-85
2023/07/04 04:59:30;;;;;;;;;;;15.90;74.60;;;;;;5078171;28;20004;-85
2023/07/04 05:01:56;;;;;;;;;;;15.80;74.70;;;;;;5075785;28;20012;-85
2023/07/04 05:04:21;;;;;;;;;;;15.70;75.10;;;;;;5092589;28;19908;-84
2023/07/04 05:06:47;;;;;;;;;;;15.70;75.20;;;;;;5061702;28;19951;-84
2023/07/04 05:09:12;;;;;;;;;;;15.80;75.10;;;;;;5078810;28;20430;-85
2023/07/04 05:11:39;;;;;;;;;;;15.80;74.90;;;;;;5096592;28;19954;-85
2023/07/04 05:14:04;;;;;;;;;;;15.90;74.70;;;;;;5076410;28;19916;-84
2023/07/04 05:16:30;;;;;;;;;;;16.00;74.10;;;;;;5077680;28;20392;-85
2023/07/04 05:18:55;;;;;;;;;;;16.00;74.30;;;;;;5068556;28;19933;-85
2023/07/04 05:21:21;;;;;;;;;;;16.00;74.00;;;;;;5076047;28;19919;-84
2023/07/04 05:23:48;;;;;;;;;;;16.00;74.20;;;;;;5075955;28;19912;-85
2023/07/04 05:26:15;;;;;;;;;;;16.00;74.40;;;;;;5092708;28;20505;-85
2023/07/04 05:28:41;;;;;;;;;;;16.10;74.10;;;;;;5074589;28;19912;-85
2023/07/04 05:31:08;;;;;;;;;;;16.20;74.20;;;;;;5067789;28;20384;-85
2023/07/04 05:33:34;;;;;;;;;;;16.20;73.90;;;;;;5092532;28;20281;-85
2023/07/04 05:36:09;;;;;;;;;;;16.20;73.80;;;;;;5088887;28;19951;-85
2023/07/04 05:38:34;;;;;;;;;;;16.30;73.30;;;;;;5076316;28;19908;-85
2023/07/04 05:41:00;;;;;;;;;;;16.30;73.40;;;;;;5076344;28;20362;-84
2023/07/04 05:43:26;;;;;;;;;;;16.30;73.70;;;;;;5074619;28;19969;-85
2023/07/04 05:45:52;;;;;;;;;;;16.40;73.60;;;;;;5090550;28;19922;-85
2023/07/04 05:48:18;;;;;;;;;;;16.30;73.90;;;;;;5082118;28;19908;-86
2023/07/04 05:50:50;;;;;;;;;;;16.40;74.00;;;;;;5088003;28;19919;-85
2023/07/04 05:53:16;;;;;;;;;;;16.50;73.30;;;;;;5080801;28;19923;-84
2023/07/04 05:55:41;;;;;;;;;;;16.50;73.70;;;;;;5078860;28;19912;-84
2023/07/04 05:58:06;;;;;;;;;;;16.50;73.30;;;;;;5069307;28;19944;-84
2023/07/04 06:00:33;;;;;;;;;;;16.50;73.60;;;;;;5077778;28;20308;-85
2023/07/04 06:02:59;;;;;;;;;;;16.50;73.50;;;;;;5079925;28;19916;-84
2023/07/04 06:05:24;;;;;;;;;;;16.60;73.30;;;;;;5073074;28;19919;-86
2023/07/04 06:07:50;;;;;;;;;;;16.60;73.20;;;;;;5089876;28;19981;-86
2023/07/04 06:10:15;;;;;;;;;;;16.60;73.20;;;;;;5074274;28;20366;-86
2023/07/04 06:12:41;;;;;;;;;;;16.70;73.30;;;;;;5076779;28;19908;-85
2023/07/04 06:15:07;;;;;;;;;;;16.70;73.20;;;;;;5075021;28;19970;-84
2023/07/04 06:17:32;;;;;;;;;;;16.80;73.20;;;;;;5073043;28;19983;-86
2023/07/04 06:19:58;;;;;;;;;;;16.90;73.10;;;;;;5070717;28;20044;-85
2023/07/04 06:22:24;;;;;;;;;;;16.90;72.60;;;;;;5088663;28;19916;-85
2023/07/04 06:24:52;;;;;;;;;;;17.00;72.70;;;;;;5086138;28;19927;-86
2023/07/04 06:27:18;;;;;;;;;;;16.80;72.10;;;;;;5083668;28;19975;-83
2023/07/04 06:29:46;;;;;;;;;;;16.90;72.10;;;;;;5087726;28;20374;-86
2023/07/04 06:32:11;;;;;;;;;;;17.00;71.90;;;;;;5091599;28;19908;-86
2023/07/04 06:34:37;;;;;;;;;;;16.90;71.70;;;;;;5072427;28;19923;-84
2023/07/04 06:37:02;;;;;;;;;;;17.00;72.00;;;;;;5072234;28;19913;-86
2023/07/04 06:39:28;;;;;;;;;;;17.00;72.00;;;;;;5072563;28;19916;-86
2023/07/04 06:41:53;;;;;;;;;;;17.10;71.40;;;;;;5067868;28;19963;-85
2023/07/04 06:44:19;;;;;;;;;;;17.10;71.70;;;;;;5087030;28;20296;-85
2023/07/04 06:46:44;;;;;;;;;;;17.30;70.10;;;;;;5066156;28;19916;-84
2023/07/04 06:49:11;;;;;;;;;;;17.20;69.90;;;;;;5065460;28;19913;-84
2023/07/04 06:51:36;;;;;;;;;;;17.20;70.20;;;;;;5087398;28;19912;-85
2023/07/04 06:54:02;;;;;;;;;;;17.20;70.10;;;;;;5069657;28;19912;-85
2023/07/04 06:56:28;;;;;;;;;;;17.20;70.20;;;;;;5066897;28;19970;-85
2023/07/04 06:58:54;;;;;;;;;;;17.20;70.50;;;;;;5083953;28;20018;-85
2023/07/04 07:01:26;;;;;;;;;;;17.20;69.20;;;;;;5063987;28;19920;-86
2023/07/04 07:03:52;;;;;;;;;;;17.10;68.80;;;;;;5062549;28;19912;-84
2023/07/04 07:06:17;;;;;;;;;;;17.20;69.00;;;;;;5086445;28;19916;-84
2023/07/04 07:08:43;;;;;;;;;;;17.40;68.40;;;;;;5090201;28;19912;-84
2023/07/04 07:11:29;;;;;;;;;;;;;;;;;;;;;
2023/07/04 07:13:56;;;;;;;;;;;17.70;68.30;;;;;;5082940;28;19912;-89
2023/07/04 07:16:26;;;;;;;;;;;17.80;67.50;;;;;;5083839;28;20530;-87
2023/07/04 07:19:01;;;;;;;;;;;17.70;66.90;;;;;;5079278;28;19911;-87
2023/07/04 07:21:29;;;;;;;;;;;17.60;66.80;;;;;;5087240;28;20068;-87
2023/07/04 07:23:55;;;;;;;;;;;17.60;68.10;;;;;;5094988;28;20023;-89
2023/07/04 07:26:26;;;;;;;;;;;17.80;67.90;;;;;;5082059;28;19916;-87
2023/07/04 07:28:52;;;;;;;;;;;18.00;67.30;;;;;;5073509;28;19908;-87
2023/07/04 07:31:24;;;;;;;;;;;18.00;67.30;;;;;;5077546;28;19919;-88
2023/07/04 07:33:49;;;;;;;;;;;18.00;65.70;;;;;;5075260;28;19962;-87
2023/07/04 07:36:37;;;;;;;;;;;18.00;66.80;;;;;;5072877;28;19912;-86
2023/07/04 07:39:04;;;;;;;;;;;18.10;65.70;;;;;;5071959;28;19912;-86
2023/07/04 07:41:33;;;;;;;;;;;18.00;65.50;;;;;;5072955;28;20271;-87
2023/07/04 07:44:01;;;;;;;;;;;18.00;65.00;;;;;;5074082;28;19995;-87
2023/07/04 07:46:27;;;;;;;;;;;18.00;65.30;;;;;;5071809;28;19912;-88
2023/07/04 07:48:53;;;;;;;;;;;18.00;65.70;;;;;;5080204;28;19920;-87
2023/07/04 07:51:19;;;;;;;;;;;18.00;66.40;;;;;;5076090;28;20412;-88
2023/07/04 07:53:46;;;;;;;;;;;18.10;64.50;;;;;;5065024;28;19919;-88
2023/07/04 07:56:13;;;;;;;;;;;18.10;64.60;;;;;;5091956;28;19912;-88
2023/07/04 07:58:39;;;;;;;;;;;18.10;64.40;;;;;;5076446;28;20015;-88
2023/07/04 08:01:20;;;;;;;;;;;18.20;63.40;;;;;;5077605;28;19939;-88
2023/07/04 08:03:46;;;;;;;;;;;18.40;63.50;;;;;;5078194;28;19947;-89
2023/07/04 08:06:20;;;;;;;;;;;18.50;63.80;;;;;;5067149;28;19958;-88
2023/07/04 08:08:45;;;;;;;;;;;18.50;62.00;;;;;;5077108;28;19909;-88
2023/07/04 08:11:14;;;;;;;;;;;18.40;60.40;;;;;;5076323;28;19987;-88
2023/07/04 08:13:43;;;;;;;;;;;18.30;58.90;;;;;;5076375;28;19912;-88
2023/07/04 08:16:09;;;;;;;;;;;18.40;59.90;;;;;;5075970;28;20277;-88
2023/07/04 08:18:34;;;;;;;;;;;18.60;60.50;;;;;;5076076;28;19918;-88
2023/07/04 08:21:01;;;;;;;;;;;18.70;61.00;;;;;;5076898;28;19908;-89
2023/07/04 08:23:27;;;;;;;;;;;18.80;60.40;;;;;;5076370;28;19908;-88
2023/07/04 08:25:53;;;;;;;;;;;18.80;60.50;;;;;;5075270;28;19999;-88
2023/07/04 08:28:21;;;;;;;;;;;19.00;58.90;;;;;;5091022;28;19939;-90
2023/07/04 08:30:47;;;;;;;;;;;19.10;58.90;;;;;;5080599;28;20003;-88
2023/07/04 08:33:16;;;;;;;;;;;19.10;57.40;;;;;;5075866;28;19948;-88
2023/07/04 08:35:54;;;;;;;;;;;19.00;58.70;;;;;;5075496;28;19992;-89
2023/07/04 08:38:20;;;;;;;;;;;18.90;60.10;;;;;;5075054;28;19916;-89
2023/07/04 08:40:46;;;;;;;;;;;19.00;57.60;;;;;;5074360;28;20517;-88
2023/07/04 08:43:12;;;;;;;;;;;19.10;56.70;;;;;;5074969;28;19912;-88
2023/07/04 08:45:37;;;;;;;;;;;19.10;56.60;;;;;;5075003;28;19994;-88
2023/07/04 08:48:03;;;;;;;;;;;19.40;56.30;;;;;;5075906;28;20326;-88
2023/07/04 08:50:31;;;;;;;;;;;19.50;55.10;;;;;;5076349;28;19947;-87
2023/07/04 08:53:14;;;;;;;;;;;19.40;54.10;;;;;;5087189;28;20512;-89
2023/07/04 08:55:43;;;;;;;;;;;19.20;55.10;;;;;;5076822;28;19912;-90
2023/07/04 08:58:09;;;;;;;;;;;19.20;55.80;;;;;;5088500;28;19913;-88
2023/07/04 09:00:36;;;;;;;;;;;19.20;55.90;;;;;;5081066;28;20014;-89
2023/07/04 09:03:05;;;;;;;;;;;19.20;55.90;;;;;;5075483;28;19916;-90
2023/07/04 09:05:39;;;;;;;;;;;19.20;53.80;;;;;;5071953;28;19913;-89
2023/07/04 09:08:09;;;;;;;;;;;19.50;54.90;;;;;;5055628;28;19939;-90
2023/07/04 09:10:46;;;;;;;;;;;19.70;54.00;;;;;;5055656;28;19924;-89
2023/07/04 09:13:23;;;;;;;;;;;19.70;53.80;;;;;;5072092;28;20282;-90
2023/07/04 09:15:48;;;;;;;;;;;19.80;53.60;;;;;;5071398;28;19916;-89
2023/07/04 09:18:23;;;;;;;;;;;19.80;53.30;;;;;;5072895;28;19912;-89
2023/07/04 09:20:56;;;;;;;;;;;20.10;52.90;;;;;;5081986;28;19912;-88
2023/07/04 09:23:22;;;;;;;;;;;20.20;52.10;;;;;;5072958;28;19912;-90
2023/07/04 09:25:49;;;;;;;;;;;20.20;51.40;;;;;;5067740;28;19958;-90
2023/07/04 09:28:14;;;;;;;;;;;20.10;52.30;;;;;;5071657;28;19924;-89
2023/07/04 09:30:40;;;;;;;;;;;20.20;52.60;;;;;;5075568;28;20285;-88
2023/07/04 09:33:05;;;;;;;;;;;20.10;52.60;;;;;;5074424;28;19908;-90
2023/07/04 09:35:31;;;;;;;;;;;20.00;52.10;;;;;;5072330;28;19929;-89
2023/07/04 09:37:57;;;;;;;;;;;19.90;52.00;;;;;;5074022;28;19915;-90
2023/07/04 09:40:42;;;;;;;;;;;20.00;52.40;;;;;;5075142;28;20410;-89
2023/07/04 09:43:09;;;;;;;;;;;19.90;52.50;;;;;;5074726;28;19923;-90
2023/07/04 09:45:35;;;;;;;;;;;20.10;52.10;;;;;;5062866;28;19919;-90
2023/07/04 09:48:01;;;;;;;;;;;20.10;51.00;;;;;;5074840;28;20276;-89
2023/07/04 09:50:34;;;;;;;;;;;20.30;49.80;;;;;;5074312;28;19908;-89
2023/07/04 09:53:10;;;;;;;;;;;20.30;51.60;;;;;;5090635;28;19926;-90
2023/07/04 09:55:37;;;;;;;;;;;20.40;50.80;;;;;;5072661;28;19919;-89
2023/07/04 09:58:17;;;;;;;;;;;20.50;51.00;;;;;;5069863;28;19912;-89
2023/07/04 10:01:00;;;;;;;;;;;20.40;50.20;;;;;;5074294;28;20014;-89
2023/07/04 10:03:25;;;;;;;;;;;20.50;50.00;;;;;;5074459;28;20264;-88
2023/07/04 10:05:51;;;;;;;;;;;20.60;50.00;;;;;;5073814;28;19998;-89
2023/07/04 10:08:17;;;;;;;;;;;20.80;49.40;;;;;;5074526;28;19918;-89
2023/07/04 10:10:52;;;;;;;;;;;20.80;49.80;;;;;;5071009;28;19973;-90
2023/07/04 10:13:19;;;;;;;;;;;20.90;49.70;;;;;;5069564;28;19999;-90
2023/07/04 10:15:45;;;;;;;;;;;20.90;49.40;;;;;;5072589;28;20397;-89
2023/07/04 10:18:21;;;;;;;;;;;20.90;49.00;;;;;;5068888;28;19912;-90
2023/07/04 10:20:50;;;;;;;;;;;21.10;48.10;;;;;;5074373;28;19915;-89
2023/07/04 10:23:16;;;;;;;;;;;21.10;48.60;;;;;;5074500;28;19908;-88
2023/07/04 10:25:43;;;;;;;;;;;21.10;48.30;;;;;;5081565;28;19969;-92
2023/07/04 10:28:14;;;;;;;;;;;21.20;48.30;;;;;;5087307;28;19925;-87
2023/07/04 10:30:41;;;;;;;;;;;21.40;47.50;;;;;;5093416;28;19973;-91
2023/07/04 10:33:14;;;;;;;;;;;21.50;47.40;;;;;;5077244;28;19927;-88
2023/07/04 10:35:44;;;;;;;;;;;21.50;47.10;;;;;;5080013;28;20125;-88
2023/07/04 10:38:17;;;;;;;;;;;21.40;46.70;;;;;;5078855;28;19919;-88
2023/07/04 10:40:44;;;;;;;;;;;21.30;47.00;;;;;;5078165;28;19908;-87
2023/07/04 10:43:13;;;;;;;;;;;21.20;48.40;;;;;;5080982;28;20002;-89
2023/07/04 10:45:40;;;;;;;;;;;21.20;47.10;;;;;;5056184;28;19912;-87
2023/07/04 10:48:09;;;;;;;;;;;21.10;47.50;;;;;;5055831;28;20008;-87
2023/07/04 10:50:36;;;;;;;;;;;21.10;47.80;;;;;;5074242;28;19981;-87
2023/07/04 10:53:02;;;;;;;;;;;21.00;48.20;;;;;;5058748;28;19909;-88
2023/07/04 10:55:33;;;;;;;;;;;21.20;49.50;;;;;;5054019;28;19934;-89
2023/07/04 10:58:03;;;;;;;;;;;21.20;48.90;;;;;;5058539;28;19912;-88
2023/07/04 11:00:48;;;;;;;;;;;21.30;49.30;;;;;;5071802;28;20535;-87
2023/07/04 11:03:21;;;;;;;;;;;21.50;47.70;;;;;;5054898;28;19912;-88
2023/07/04 11:05:50;;;;;;;;;;;21.60;48.60;;;;;;5065278;28;19923;-88
2023/07/04 11:08:16;;;;;;;;;;;21.70;48.50;;;;;;5075752;28;19912;-87
2023/07/04 11:10:43;;;;;;;;;;;21.60;48.40;;;;;;5073488;28;19912;-87
2023/07/04 11:13:16;;;;;;;;;;;21.70;48.90;;;;;;5078140;28;19912;-88
2023/07/04 11:15:42;;;;;;;;;;;21.80;47.00;;;;;;5077243;28;19916;-88
2023/07/04 11:18:13;;;;;;;;;;;21.80;46.30;;;;;;5076700;28;19916;-88
2023/07/04 11:20:40;;;;;;;;;;;21.80;45.80;;;;;;5076748;28;19912;-87
2023/07/04 11:23:13;;;;;;;;;;;21.90;46.20;;;;;;5074239;28;19999;-87
2023/07/04 11:25:41;;;;;;;;;;;21.80;45.60;;;;;;5069462;28;19912;-87
2023/07/04 11:28:43;;;;;;;;;;;21.70;46.40;;;;;;5072335;28;19916;-87
2023/07/04 11:31:14;;;;;;;;;;;21.70;46.90;;;;;;5059552;28;19923;-88
2023/07/04 11:33:49;;;;;;;;;;;21.80;46.90;;;;;;5088021;28;19985;-87
2023/07/04 11:36:34;;;;;;;;;;;21.60;47.00;;;;;;5062861;28;19912;-89
2023/07/04 11:39:03;;;;;;;;;;;21.70;46.70;;;;;;5088150;28;19961;-89
2023/07/04 11:41:33;;;;;;;;;;;22.00;46.20;;;;;;5071843;28;19959;-88
2023/07/04 11:44:12;;;;;;;;;;;22.00;44.40;;;;;;5073987;28;19912;-88
2023/07/04 11:46:39;;;;;;;;;;;21.90;45.30;;;;;;5069248;28;20394;-88
2023/07/04 11:49:14;;;;;;;;;;;21.90;46.10;;;;;;5083534;28;19919;-88
2023/07/04 11:51:40;;;;;;;;;;;22.00;46.20;;;;;;5074503;28;19915;-88
2023/07/04 11:54:06;;;;;;;;;;;22.10;46.00;;;;;;5073786;28;19916;-90
2023/07/04 11:56:32;;;;;;;;;;;22.20;45.30;;;;;;5053317;28;19991;-88
2023/07/04 11:59:20;;;;;;;;;;;22.20;45.30;;;;;;5074520;28;20405;-89
2023/07/04 12:01:52;;;;;;;;;;;22.30;44.30;;;;;;5091487;28;19920;-89
2023/07/04 12:04:40;;;;;;;;;;;22.50;43.80;;;;;;5093150;28;20006;-89
2023/07/04 12:07:26;;;;;;;;;;;22.50;42.40;;;;;;5070212;28;19935;-89
2023/07/04 12:09:55;;;;;;;;;;;22.50;42.20;;;;;;5077446;28;19908;-88
2023/07/04 12:12:23;;;;;;;;;;;22.60;42.40;;;;;;5076166;28;19965;-88
2023/07/04 12:14:52;;;;;;;;;;;22.60;43.00;;;;;;5075536;28;21756;-88
2023/07/04 12:17:18;;;;;;;;;;;22.60;43.10;;;;;;5077218;28;19908;-88
2023/07/04 12:19:44;;;;;;;;;;;22.70;43.00;;;;;;5075403;28;19920;-88
2023/07/04 12:22:13;;;;;;;;;;;22.80;43.60;;;;;;5075100;28;19915;-88
2023/07/04 12:24:39;;;;;;;;;;;23.00;43.70;;;;;;5075987;28;19908;-88
2023/07/04 12:27:06;;;;;;;;;;;22.90;43.80;;;;;;5074322;28;19926;-88
2023/07/04 12:29:31;;;;;;;;;;;22.80;43.60;;;;;;5073397;28;19920;-89
2023/07/04 12:32:04;;;;;;;;;;;22.60;44.70;;;;;;5075703;28;19912;-88
2023/07/04 12:34:29;;;;;;;;;;;22.60;45.00;;;;;;5074020;28;20546;-89
2023/07/04 12:37:02;;;;;;;;;;;22.60;44.00;;;;;;5075751;28;19912;-90
2023/07/04 12:39:28;;;;;;;;;;;22.50;44.60;;;;;;5076232;28;19909;-89
2023/07/04 12:41:54;;;;;;;;;;;22.40;45.40;;;;;;5072522;28;19920;-89
2023/07/04 12:44:19;;;;;;;;;;;22.60;45.30;;;;;;5077701;28;20415;-90
2023/07/04 12:46:45;;;;;;;;;;;22.60;45.10;;;;;;5075926;28;19915;-89
2023/07/04 12:49:11;;;;;;;;;;;22.60;45.00;;;;;;5074173;28;20017;-89
2023/07/04 12:51:38;;;;;;;;;;;22.70;44.10;;;;;;5103511;27;19948;-89
2023/07/04 12:54:04;;;;;;;;;;;22.70;44.40;;;;;;5077278;28;19913;-88
2023/07/04 12:56:30;;;;;;;;;;;22.60;44.90;;;;;;5074766;28;20292;-89
2023/07/04 12:58:56;;;;;;;;;;;22.60;45.10;;;;;;5075994;28;20481;-89
2023/07/04 13:01:24;;;;;;;;;;;22.70;45.60;;;;;;5075733;28;19912;-89
2023/07/04 13:03:57;;;;;;;;;;;22.80;44.20;;;;;;5076804;28;19915;-89
2023/07/04 13:06:22;;;;;;;;;;;22.70;44.20;;;;;;5071420;28;19916;-87
2023/07/04 13:08:49;;;;;;;;;;;23.00;43.60;;;;;;5076280;28;20106;-88
2023/07/04 13:11:15;;;;;;;;;;;23.00;43.90;;;;;;5073752;28;19953;-88
2023/07/04 13:13:40;;;;;;;;;;;23.10;44.70;;;;;;5075026;28;19920;-89
2023/07/04 13:16:07;;;;;;;;;;;22.90;43.60;;;;;;5073560;28;20076;-89
2023/07/04 13:18:34;;;;;;;;;;;22.80;44.00;;;;;;5077757;28;19909;-88
2023/07/04 13:20:59;;;;;;;;;;;22.80;43.80;;;;;;5074976;28;19919;-88
2023/07/04 13:23:25;;;;;;;;;;;22.70;44.10;;;;;;5077758;28;19916;-88
2023/07/04 13:25:51;;;;;;;;;;;22.60;44.60;;;;;;5090865;28;19944;-88
2023/07/04 13:28:23;;;;;;;;;;;22.60;44.80;;;;;;5072952;28;19962;-88
2023/07/04 13:30:49;;;;;;;;;;;22.70;44.70;;;;;;5075611;28;19912;-89
2023/07/04 13:33:28;;;;;;;;;;;22.90;44.30;;;;;;5077520;28;19908;-89
2023/07/04 13:36:03;;;;;;;;;;;22.80;44.30;;;;;;5090677;28;19927;-89
2023/07/04 13:38:29;;;;;;;;;;;22.80;44.80;;;;;;5087582;28;19900;-92
2023/07/04 13:40:54;;;;;;;;;;;22.80;44.70;;;;;;5083830;28;19966;-90
2023/07/04 13:43:22;;;;;;;;;;;22.80;45.10;;;;;;5077221;28;19919;-88
2023/07/04 13:45:47;;;;;;;;;;;23.00;45.50;;;;;;5075133;28;19908;-86
2023/07/04 13:48:13;;;;;;;;;;;23.10;44.60;;;;;;5074436;28;19920;-90
2023/07/04 13:50:38;;;;;;;;;;;23.20;44.40;;;;;;5071907;28;19920;-88
2023/07/04 13:53:06;;;;;;;;;;;23.10;44.90;;;;;;5073426;28;20002;-88
2023/07/04 13:55:32;;;;;;;;;;;23.10;44.70;;;;;;5083279;28;19912;-87
2023/07/04 13:57:58;;;;;;;;;;;23.10;44.70;;;;;;5075230;28;20028;-88
2023/07/04 14:00:23;;;;;;;;;;;23.00;44.60;;;;;;5072727;28;19958;-89
2023/07/04 14:02:49;;;;;;;;;;;23.00;45.40;;;;;;5074497;28;20002;-88
2023/07/04 14:05:15;;;;;;;;;;;23.10;44.50;;;;;;5073753;28;19962;-87
2023/07/04 14:07:40;;;;;;;;;;;23.20;44.70;;;;;;5073376;28;19912;-87
2023/07/04 14:10:06;;;;;;;;;;;23.20;44.80;;;;;;5087560;28;20010;-88
2023/07/04 14:12:33;;;;;;;;;;;23.10;43.60;;;;;;5074855;28;22251;-88
2023/07/04 14:14:59;;;;;;;;;;;23.00;44.10;;;;;;5075392;28;19956;-87
2023/07/04 14:17:24;;;;;;;;;;;23.00;44.00;;;;;;5069086;28;20630;-88
2023/07/04 14:19:52;;;;;;;;;;;23.00;45.00;;;;;;5075028;28;19908;-87
2023/07/04 14:22:17;;;;;;;;;;;23.10;44.70;;;;;;5070086;28;19944;-87